Matthews, IN (46957)

1:22 PM EDT on July 07, 2015 (GMT -0400)
WB9HLA-1 | | Change Station
CLOSE
Current Station
Personal Weather Station
Location: Hartford City, IN
Elevation: 918 ft
Nearby Weather Stations

Elev 918 ft 40.46 °N, 85.37 °W | Updated 5 minutes ago

Rain
Rain
72.3 °F
Feels Like 72.3 °F
N
0.0
Wind Variable Wind from West
Gusts 0.0 mph

Today
High -- | Low -- °F
--% Chance of Precip.
Yesterday
High -- | Low -- °F
Precip. -- in
6:18 AM 9:14 PM
Waning Gibbous, 63% visible
Pressure 29.92 in
Visibility 2.0 miles
Clouds Scattered Clouds 600 ft
Overcast 1500 ft
Dew Point 71 °F
Humidity 95%
Rainfall -999.00 in
Snow Depth Not available.
UV 4 out of 12
Pollen .50 out of 12
Air Quality Not available.
Flu Activity Not available.
SPECI KMIE 071720Z 31008KT 2SM RA BR SCT006 OVC015 23/22 A2992 RMK AO2 LTG DSNT SW TSB05E20 P0020 T02280217

More Conditions Fewer Conditions

Pressure 29.92 in
Visibility 2.0 miles
Clouds Scattered Clouds 600 ft
Overcast 1500 ft
Dew Point 71 °F
Humidity 95%
Rainfall -999.00 in
Snow Depth Not available.
UV 4 out of 12
Pollen .50 out of 12
Air Quality Not available.
Flu Activity Not available.
SPECI KMIE 071720Z 31008KT 2SM RA BR SCT006 OVC015 23/22 A2992 RMK AO2 LTG DSNT SW TSB05E20 P0020 T02280217

More Conditions Fewer Conditions

10-Day Weather Forecast

×

Almanac

Astronomy

Jul. 07, 2015 Rise Set
Actual Time
Civil Twilight
Nautical Twilight
Astronomical Twilight
Moon
Length of Visible Light
Length of Day
Tomorrow will be .
, % of the Moon is Illuminated

Today's Extremes

State Highs State Lows

Community

WunderPhotos

Upload Photos

1,835,857 photos uploaded!

WunderBlogs® & News

Nearby

Air Quality

  Air Quality AQ Index Pollutant
Not available.

Snow Depth

Station Depth Elevation

Earthquake Activity

City Distance Mag. Time & Date
Minimum magnitude displayed is 2.5.

Coastal Water Temperatures

Place Temperature

Stations

Nearby Weather Stations

Station Location Temp. Windchill Dew Point Humidity Wind Precip. Elev Updated Type